Time;durP1;ratioP1;P1;durP2;ratioP2;P2;SDS_P1;SDS_P2;PMS_P1;PMS_P2;Temp;Humidity;BMP_temperature;BMP_pressure;BME280_temperature;BME280_humidity;BME280_pressure;Samples;Min_cycle;Max_cycle;Signal;HPM_P1;HPM_P2
2021/12/26 00:00:16;;;;;;;9.88;5.45;;;;;;;12.63;48.43;100278.31;4994582;28;20125;-72
2021/12/26 00:02:41;;;;;;;13.68;6.60;;;;;;;12.65;48.42;100289.84;4994810;28;20031;-74
2021/12/26 00:05:07;;;;;;;8.98;6.43;;;;;;;12.59;48.36;100282.31;4994655;28;20086;-74
2021/12/26 00:07:33;;;;;;;17.75;7.65;;;;;;;12.61;48.33;100280.31;4995128;28;20455;-74
2021/12/26 00:09:59;;;;;;;11.82;6.72;;;;;;;12.65;48.11;100291.69;4994888;28;20102;-74
2021/12/26 00:12:24;;;;;;;11.55;6.78;;;;;;;12.67;48.36;100295.06;4994860;28;20018;-74
2021/12/26 00:14:50;;;;;;;9.57;6.65;;;;;;;12.66;48.01;100299.59;4991266;28;20533;-74
2021/12/26 00:17:15;;;;;;;10.48;7.15;;;;;;;12.66;48.45;100309.56;4994238;28;20034;-74
2021/12/26 00:19:41;;;;;;;13.55;6.97;;;;;;;12.64;48.01;100295.34;4993643;28;20512;-74
2021/12/26 00:22:06;;;;;;;8.98;6.43;;;;;;;12.65;48.66;100297.94;4983519;28;20459;-74
2021/12/26 00:24:32;;;;;;;13.70;7.22;;;;;;;12.65;48.42;100297.94;4975227;28;20023;-74
2021/12/26 00:26:57;;;;;;;13.40;6.75;;;;;;;12.67;47.92;100305.84;4976521;28;20030;-73
2021/12/26 00:29:23;;;;;;;19.45;7.53;;;;;;;12.64;48.07;100301.59;4985446;28;20110;-73
2021/12/26 00:31:48;;;;;;;13.30;7.18;;;;;;;12.64;48.00;100312.41;4987776;28;20084;-72
2021/12/26 00:34:14;;;;;;;11.82;7.28;;;;;;;12.60;48.33;100310.16;4993409;28;20042;-73
2021/12/26 00:36:39;;;;;;;13.15;8.25;;;;;;;12.58;48.22;100313.00;4985498;28;20026;-73
2021/12/26 00:39:06;;;;;;;11.88;7.75;;;;;;;12.48;48.31;100295.97;4974508;28;20425;-73
2021/12/26 00:41:32;;;;;;;15.45;8.10;;;;;;;12.42;48.36;100291.16;4979388;28;20034;-73
2021/12/26 00:43:57;;;;;;;13.00;7.47;;;;;;;12.44;47.93;100305.34;4980585;28;20493;-75
2021/12/26 00:46:23;;;;;;;11.45;6.45;;;;;;;12.39;48.41;100297.69;4993396;28;20486;-74
2021/12/26 00:48:48;;;;;;;11.60;7.20;;;;;;;12.40;48.94;100296.69;4991897;28;20032;-74
2021/12/26 00:51:14;;;;;;;11.95;7.38;;;;;;;12.44;48.64;100299.97;4986936;28;20101;-74
2021/12/26 00:53:40;;;;;;;13.30;7.63;;;;;;;12.42;48.69;100296.53;4974342;28;20093;-74
2021/12/26 00:56:06;;;;;;;13.15;7.45;;;;;;;12.46;48.23;100297.97;4973802;28;20086;-73
2021/12/26 00:58:31;;;;;;;11.98;6.88;;;;;;;12.46;48.71;100289.88;4982275;28;20034;-74
2021/12/26 01:00:57;;;;;;;16.80;6.40;;;;;;;12.46;48.29;100292.56;4978853;28;20035;-74
2021/12/26 01:03:22;;;;;;;12.63;7.57;;;;;;;12.47;48.13;100289.75;4992773;28;20034;-73
2021/12/26 01:05:53;;;;;;;15.25;6.60;;;;;;;12.46;48.56;100287.16;4989671;28;20089;-73
2021/12/26 01:08:24;;;;;;;14.52;7.72;;;;;;;12.46;48.39;100284.47;4993610;28;20465;-74
2021/12/26 01:10:55;;;;;;;13.27;7.82;;;;;;;12.47;48.25;100283.50;4989728;28;20032;-73
2021/12/26 01:13:35;;;;;;;19.95;7.13;;;;;;;12.48;48.56;100285.16;4985876;28;20030;-73
2021/12/26 01:16:05;;;;;;;12.55;7.10;;;;;;;12.51;48.52;100279.47;4996117;28;20080;-74
2021/12/26 01:18:33;;;;;;;15.25;7.32;;;;;;;12.51;48.42;100274.09;4989965;28;20129;-74
2021/12/26 01:21:16;;;;;;;16.65;6.68;;;;;;;12.50;48.22;100277.81;4986575;28;20042;-74
2021/12/26 01:23:42;;;;;;;;;;;;;;;12.45;47.83;100274.66;4978906;28;20030;-73
2021/12/26 01:26:08;;;;;;;12.20;7.10;;;;;;;12.40;48.20;100272.44;4984768;28;20049;-74
2021/12/26 01:28:34;;;;;;;11.25;6.93;;;;;;;12.43;48.09;100263.19;4992600;28;20061;-74
2021/12/26 01:30:59;;;;;;;13.00;7.40;;;;;;;12.32;48.25;100256.09;4984593;28;20026;-74
2021/12/26 01:33:26;;;;;;;32.25;7.93;;;;;;;12.40;48.79;100255.38;4989311;28;20030;-74
2021/12/26 01:35:52;;;;;;;11.80;7.32;;;;;;;12.41;48.58;100257.09;4993381;28;20457;-73
2021/12/26 01:38:18;;;;;;;14.50;7.13;;;;;;;12.42;48.35;100254.25;4988931;28;20135;-73
2021/12/26 01:40:49;;;;;;;11.23;6.70;;;;;;;12.30;48.33;100255.41;4985416;28;20029;-74
2021/12/26 01:43:16;;;;;;;11.18;7.22;;;;;;;12.33;49.14;100259.66;4989572;28;20472;-75
2021/12/26 01:45:42;;;;;;;11.82;6.95;;;;;;;12.29;48.75;100250.16;4992727;28;20607;-75
2021/12/26 01:48:08;;;;;;;13.90;6.93;;;;;;;12.33;49.07;100259.66;4984450;28;20076;-75
2021/12/26 01:50:36;;;;;;;14.90;7.53;;;;;;;12.25;48.73;100236.13;4988432;28;20034;-73
2021/12/26 01:53:03;;;;;;;14.75;7.10;;;;;;;12.27;48.23;100254.84;4973458;28;20031;-73
2021/12/26 01:55:40;;;;;;;10.60;6.32;;;;;;;12.28;48.93;100240.38;4981391;28;20037;-73
2021/12/26 01:58:09;;;;;;;11.23;6.60;;;;;;;12.18;48.82;100247.63;4985055;28;20089;-73
2021/12/26 02:00:37;;;;;;;14.32;7.60;;;;;;;12.15;48.88;100253.28;4988280;28;20405;-73
2021/12/26 02:03:02;;;;;;;11.38;6.50;;;;;;;12.12;48.70;100240.09;4989114;28;20473;-74
2021/12/26 02:05:28;;;;;;;8.38;6.45;;;;;;;12.00;48.94;100229.50;4983487;28;20030;-74
2021/12/26 02:07:53;;;;;;;15.48;6.18;;;;;;;12.09;49.09;100246.63;4975945;28;20027;-74
2021/12/26 02:10:19;;;;;;;13.90;6.20;;;;;;;12.17;49.24;100248.63;4983365;28;20027;-74
2021/12/26 02:12:44;;;;;;;12.32;6.43;;;;;;;12.14;49.16;100246.22;4976933;28;20026;-74
2021/12/26 02:15:10;;;;;;;10.27;5.57;;;;;;;12.13;49.15;100247.22;4977396;28;20061;-74
2021/12/26 02:17:36;;;;;;;12.52;6.88;;;;;;;12.04;49.24;100237.28;4987430;28;20488;-73
2021/12/26 02:20:38;;;;;;;10.63;6.15;;;;;;;11.97;49.48;100245.94;4981717;28;20036;-74
2021/12/26 02:23:16;;;;;;;11.73;5.63;;;;;;;11.93;49.79;100249.91;4981000;28;20022;-74
2021/12/26 02:28:25;;;;;;;8.55;6.13;;;;;;;11.74;49.89;100249.91;4986282;28;20568;-73
2021/12/26 02:30:52;;;;;;;10.65;6.40;;;;;;;11.75;50.31;100248.06;4989681;28;20036;-74
2021/12/26 02:33:18;;;;;;;12.23;5.28;;;;;;;11.62;50.41;100259.09;4973307;28;20077;-74
2021/12/26 02:35:45;;;;;;;12.27;5.75;;;;;;;11.66;50.29;100255.13;4979265;28;20485;-75
2021/12/26 02:38:11;;;;;;;10.43;6.22;;;;;;;11.66;50.19;100263.22;4978730;28;20097;-73
2021/12/26 02:40:38;;;;;;;9.82;6.78;;;;;;;11.61;50.70;100252.03;4973404;28;20058;-73
2021/12/26 02:43:05;;;;;;;12.07;6.50;;;;;;;11.57;50.31;100257.81;4981794;28;20508;-74
2021/12/26 02:45:31;;;;;;;11.85;7.07;;;;;;;11.54;50.65;100256.25;4975169;28;20047;-74
2021/12/26 02:47:57;;;;;;;11.25;6.47;;;;;;;11.52;50.99;100258.25;4973241;28;20031;-74
2021/12/26 02:50:28;;;;;;;9.95;6.60;;;;;;;11.54;51.16;100253.56;4984387;28;20073;-74
2021/12/26 02:52:56;;;;;;;9.85;6.25;;;;;;;11.53;51.01;100253.72;4983463;28;20029;-74
2021/12/26 02:55:23;;;;;;;11.73;6.00;;;;;;;11.48;50.78;100252.28;4978028;28;20048;-74
2021/12/26 02:58:01;;;;;;;7.20;5.68;;;;;;;11.43;50.98;100249.16;4992934;28;20407;-74
2021/12/26 03:00:30;;;;;;;8.68;5.85;;;;;;;11.47;51.30;100249.72;4984021;28;20035;-74
2021/12/26 03:02:58;;;;;;;8.18;5.65;;;;;;;11.50;50.65;100264.78;4986890;28;20027;-74
2021/12/26 03:05:31;;;;;;;11.30;5.45;;;;;;;11.52;51.42;100266.31;4987911;28;20077;-74
2021/12/26 03:07:58;;;;;;;9.68;5.95;;;;;;;11.56;51.07;100267.72;4984614;28;20045;-75
2021/12/26 03:10:26;;;;;;;7.47;5.57;;;;;;;11.59;51.49;100264.75;4954793;28;20492;-75
2021/12/26 03:12:57;;;;;;;8.52;5.45;;;;;;;11.61;51.03;100270.88;4983914;28;20030;-74
2021/12/26 03:15:26;;;;;;;13.85;6.05;;;;;;;11.68;50.85;100263.09;4980858;28;20105;-74
2021/12/26 03:17:53;;;;;;;11.57;5.95;;;;;;;11.72;51.03;100275.28;4966464;28;20026;-75
2021/12/26 03:20:21;;;;;;;10.98;6.78;;;;;;;11.68;50.79;100269.28;4993496;28;20490;-74
2021/12/26 03:22:47;;;;;;;16.38;6.20;;;;;;;11.73;50.75;100283.25;4969953;28;20031;-74
2021/12/26 03:25:19;;;;;;;9.27;5.25;;;;;;;11.73;50.44;100272.47;4989699;28;20031;-74
2021/12/26 03:27:45;;;;;;;8.43;5.93;;;;;;;11.77;50.19;100273.06;4980890;28;20021;-75
2021/12/26 03:30:17;;;;;;;9.25;6.20;;;;;;;11.77;50.31;100276.56;4961651;28;20030;-75
2021/12/26 03:32:43;;;;;;;9.93;6.43;;;;;;;11.82;50.40;100277.03;4985199;28;20027;-77
2021/12/26 03:35:10;;;;;;;8.05;5.60;;;;;;;11.85;50.13;100267.78;4983280;28;20041;-73
2021/12/26 03:37:37;;;;;;;8.93;5.78;;;;;;;11.88;50.75;100289.06;4978564;28;20465;-73
2021/12/26 03:40:04;;;;;;;9.32;6.32;;;;;;;11.93;50.27;100284.09;4988149;28;20492;-75
2021/12/26 03:42:31;;;;;;;13.45;5.45;;;;;;;11.95;50.30;100282.97;4976154;28;20033;-73
2021/12/26 03:44:57;;;;;;;10.48;5.93;;;;;;;12.02;50.11;100282.41;4987956;28;20064;-73
2021/12/26 03:47:22;;;;;;;14.13;7.00;;;;;;;12.00;50.13;100286.09;4994486;28;20065;-73
2021/12/26 03:49:49;;;;;;;10.25;6.35;;;;;;;12.00;50.16;100286.09;4994717;28;20030;-73
2021/12/26 03:52:15;;;;;;;13.40;7.15;;;;;;;12.07;50.08;100285.53;4991618;28;20034;-73
2021/12/26 03:54:41;;;;;;;20.85;8.52;;;;;;;11.90;50.13;100285.22;4984201;28;20076;-73
2021/12/26 03:57:06;;;;;;;32.10;11.48;;;;;;;11.90;50.29;100293.31;4995229;28;20026;-73
2021/12/26 03:59:32;;;;;;;14.25;7.82;;;;;;;11.84;50.61;100291.19;4992009;28;20030;-74
2021/12/26 04:01:58;;;;;;;12.32;7.25;;;;;;;11.78;50.40;100291.75;4979227;28;20033;-74
2021/12/26 04:04:26;;;;;;;11.43;6.50;;;;;;;11.79;50.34;100292.59;4976076;28;20018;-77
2021/12/26 04:06:52;;;;;;;15.45;6.30;;;;;;;11.59;51.14;100294.38;4961377;28;20050;-74
2021/12/26 04:09:17;;;;;;;10.65;6.70;;;;;;;11.55;51.21;100306.44;4985573;28;20397;-74
2021/12/26 04:11:45;;;;;;;10.77;7.18;;;;;;;11.52;51.42;100309.41;4981371;28;20113;-73
2021/12/26 04:14:11;;;;;;;14.80;7.63;;;;;;;11.44;51.28;100304.72;4980631;28;20037;-74
2021/12/26 04:16:37;;;;;;;11.57;7.03;;;;;;;11.51;51.49;100313.09;4987476;28;20542;-73
2021/12/26 04:19:06;;;;;;;10.40;7.05;;;;;;;11.58;51.22;100316.09;4978450;28;20039;-75
2021/12/26 04:21:32;;;;;;;9.15;6.78;;;;;;;11.57;51.58;100320.63;4975801;28;20129;-73
2021/12/26 04:23:58;;;;;;;9.32;6.70;;;;;;;11.57;51.28;100320.63;4990928;28;20110;-74
2021/12/26 04:26:23;;;;;;;14.88;8.55;;;;;;;11.49;51.51;100317.78;4983852;28;20026;-73
2021/12/26 04:28:49;;;;;;;10.10;7.18;;;;;;;11.49;52.00;100325.84;4993889;28;20034;-73
2021/12/26 04:31:15;;;;;;;18.55;9.02;;;;;;;11.29;52.36;100326.75;4990810;28;20476;-74
2021/12/26 04:33:41;;;;;;;18.63;7.93;;;;;;;11.31;52.23;100328.31;4977747;28;20069;-74
2021/12/26 04:36:07;;;;;;;16.92;8.05;;;;;;;11.38;52.51;100329.50;4980824;28;20062;-73
2021/12/26 04:38:33;;;;;;;10.20;7.07;;;;;;;11.28;52.30;100335.84;4994035;28;20421;-73
2021/12/26 04:40:58;;;;;;;20.40;8.07;;;;;;;11.27;52.37;100326.06;4965739;28;20030;-74
2021/12/26 04:43:25;;;;;;;8.65;6.00;;;;;;;11.34;52.55;100327.22;4984096;28;20030;-73
2021/12/26 04:45:51;;;;;;;8.90;6.45;;;;;;;11.42;52.49;100335.47;4979447;28;20125;-74
2021/12/26 04:48:17;;;;;;;10.73;6.40;;;;;;;11.46;52.24;100328.81;4980480;28;20077;-73
2021/12/26 04:50:43;;;;;;;44.45;15.45;;;;;;;11.52;52.62;100322.88;4989164;28;20034;-74
2021/12/26 04:53:09;;;;;;;9.82;6.57;;;;;;;11.57;51.91;100326.00;4981110;28;20058;-73
2021/12/26 04:55:36;;;;;;;14.18;7.50;;;;;;;11.51;52.12;100306.84;4993845;28;20484;-73
2021/12/26 04:58:02;;;;;;;28.15;7.10;;;;;;;11.60;52.26;100312.25;4979344;28;20041;-74
2021/12/26 05:00:30;;;;;;;12.93;6.85;;;;;;;11.35;52.46;100305.53;4980604;28;20492;-73
2021/12/26 05:02:57;;;;;;;10.20;7.00;;;;;;;11.34;52.32;100303.00;4990211;28;20045;-73
2021/12/26 05:05:26;;;;;;;12.82;8.57;;;;;;;11.29;52.68;100305.22;4983585;28;20050;-74
2021/12/26 05:07:53;;;;;;;13.95;7.75;;;;;;;11.17;53.18;100317.09;4982859;28;20527;-73
2021/12/26 05:10:19;;;;;;;15.80;7.43;;;;;;;11.21;52.97;100315.84;4977533;28;20085;-73
2021/12/26 05:12:46;;;;;;;13.80;7.30;;;;;;;11.21;53.31;100313.16;4976074;28;20077;-73
2021/12/26 05:15:13;;;;;;;12.95;6.85;;;;;;;11.27;53.50;100321.53;4978849;28;20038;-74
2021/12/26 05:17:42;;;;;;;26.52;9.52;;;;;;;11.31;53.37;100316.72;4976064;28;20027;-74
2021/12/26 05:20:09;;;;;;;10.82;6.32;;;;;;;11.31;52.97;100300.56;4978760;28;20046;-73
2021/12/26 05:22:34;;;;;;;11.00;6.28;;;;;;;11.42;53.24;100305.84;4981256;28;20026;-74
2021/12/26 05:25:00;;;;;;;7.32;5.05;;;;;;;11.52;52.74;100306.72;4984687;28;20125;-74
2021/12/26 05:27:25;;;;;;;7.20;5.05;;;;;;;11.61;52.49;100308.59;4986599;28;20445;-75
2021/12/26 05:29:51;;;;;;;9.65;5.32;;;;;;;11.69;52.22;100315.94;4974641;28;20441;-74
2021/12/26 05:32:16;;;;;;;13.07;5.55;;;;;;;11.73;52.40;100307.50;4971709;28;20445;-74
2021/12/26 05:34:42;;;;;;;7.95;4.78;;;;;;;11.83;52.01;100308.34;4982828;28;20034;-75
2021/12/26 05:37:08;;;;;;;10.63;5.97;;;;;;;11.81;52.29;100307.63;4981711;28;20109;-74
2021/12/26 05:39:34;;;;;;;8.30;5.38;;;;;;;11.91;52.21;100313.03;4989788;28;20027;-74
2021/12/26 05:41:59;;;;;;;8.35;5.07;;;;;;;11.99;51.97;100316.72;4960034;28;20477;-75
2021/12/26 05:44:24;;;;;;;18.40;6.55;;;;;;;11.99;51.70;100316.72;4983873;28;20042;-74
2021/12/26 05:46:50;;;;;;;8.93;5.53;;;;;;;12.02;51.97;100312.06;4983019;28;20561;-74
2021/12/26 05:49:15;;;;;;;9.50;5.63;;;;;;;12.00;51.51;100310.34;4975575;28;20100;-74
2021/12/26 05:51:42;;;;;;;12.70;7.10;;;;;;;12.05;51.16;100298.31;4974863;28;20604;-73
2021/12/26 05:54:08;;;;;;;12.32;6.28;;;;;;;12.10;52.33;100296.88;4975125;28;20022;-73
2021/12/26 05:56:34;;;;;;;14.85;5.68;;;;;;;12.15;51.75;100304.53;4992565;28;20026;-73
2021/12/26 05:59:00;;;;;;;9.60;5.00;;;;;;;12.18;51.61;100312.31;4987158;28;20093;-73
2021/12/26 06:01:25;;;;;;;11.68;5.53;;;;;;;12.18;51.11;100309.63;4985003;28;20037;-73
2021/12/26 06:03:51;;;;;;;13.73;5.40;;;;;;;12.18;51.16;100315.03;4986228;28;20114;-75
2021/12/26 06:06:16;;;;;;;9.25;5.85;;;;;;;12.22;51.96;100319.16;4975466;28;20027;-74
2021/12/26 06:08:42;;;;;;;23.17;13.00;;;;;;;12.24;51.19;100327.94;4977356;28;20468;-74
2021/12/26 06:11:07;;;;;;;12.57;5.07;;;;;;;12.29;51.00;100329.19;4989663;28;20121;-74
2021/12/26 06:13:33;;;;;;;12.95;5.63;;;;;;;12.32;51.14;100338.88;4982718;28;20034;-75
2021/12/26 06:15:59;;;;;;;8.80;5.18;;;;;;;12.34;51.22;100343.13;4989922;28;20031;-75
2021/12/26 06:18:25;;;;;;;14.18;5.90;;;;;;;12.41;50.84;100362.28;4990299;28;20049;-74
2021/12/26 06:20:50;;;;;;;18.10;6.22;;;;;;;12.49;51.13;100367.81;4983724;28;20481;-75
2021/12/26 06:23:16;;;;;;;16.17;7.47;;;;;;;12.48;50.73;100382.28;4979206;28;20098;-73
2021/12/26 06:25:41;;;;;;;19.95;6.85;;;;;;;12.47;50.75;100381.44;4976816;28;20035;-75
2021/12/26 06:28:07;;;;;;;11.57;7.03;;;;;;;12.43;50.80;100392.66;4976553;28;20039;-75
2021/12/26 06:30:34;;;;;;;14.77;7.32;;;;;;;12.46;51.43;100398.63;4978718;28;20034;-76
2021/12/26 06:33:00;;;;;;;24.67;9.02;;;;;;;12.46;51.05;100400.47;4989943;28;20030;-74
2021/12/26 06:35:25;;;;;;;23.17;8.25;;;;;;;12.52;50.80;100407.97;4992407;28;20034;-74
2021/12/26 06:37:51;;;;;;;18.08;8.27;;;;;;;12.53;51.03;100415.09;4985904;28;20023;-74
2021/12/26 06:40:16;;;;;;;18.63;8.00;;;;;;;12.51;51.19;100408.97;4980867;28;20437;-74
2021/12/26 06:42:44;;;;;;;20.58;9.70;;;;;;;12.57;51.05;100418.34;4984047;28;20105;-74
2021/12/26 06:45:14;;;;;;;20.65;10.23;;;;;;;12.49;51.73;100402.88;4968846;28;20475;-73
2021/12/26 06:47:42;;;;;;;34.78;13.05;;;;;;;12.36;52.48;100410.38;4988910;28;20030;-75
2021/12/26 06:50:08;;;;;;;23.60;11.93;;;;;;;12.28;52.71;100419.19;4988554;28;20365;-73
2021/12/26 06:52:33;;;;;;;25.58;12.63;;;;;;;12.31;52.42;100418.91;4983221;28;20022;-74
2021/12/26 06:54:59;;;;;;;53.53;19.08;;;;;;;12.38;52.26;100408.41;4993548;28;20503;-74
2021/12/26 06:57:24;;;;;;;27.10;11.60;;;;;;;12.29;52.55;100406.56;4993146;28;20029;-74
2021/12/26 07:00:11;;;;;;;21.70;11.38;;;;;;;12.20;53.20;100410.13;4991054;28;20519;-77
2021/12/26 07:02:37;;;;;;;29.88;12.77;;;;;;;12.22;52.96;100413.50;4983971;28;20041;-75
2021/12/26 07:05:03;;;;;;;40.38;17.63;;;;;;;12.21;53.26;100411.78;4988543;28;20034;-74
2021/12/26 07:07:28;;;;;;;32.20;16.02;;;;;;;12.29;53.30;100406.56;4976718;28;20034;-74
2021/12/26 07:10:07;;;;;;;38.15;15.13;;;;;;;12.34;53.24;100412.38;4986045;28;20157;-75
2021/12/26 07:12:45;;;;;;;28.95;13.45;;;;;;;12.41;53.04;100408.13;4996622;28;20452;-74
2021/12/26 07:15:11;;;;;;;29.05;14.32;;;;;;;12.40;53.05;100403.72;4978441;28;20034;-75
2021/12/26 07:17:37;;;;;;;29.10;15.32;;;;;;;12.49;52.51;100405.56;4979200;28;20030;-75
2021/12/26 07:20:04;;;;;;;40.97;16.10;;;;;;;12.54;52.54;100398.75;4997577;28;20026;-75
2021/12/26 07:22:30;;;;;;;28.85;14.48;;;;;;;12.57;52.40;100408.38;4997003;28;20038;-76
2021/12/26 07:24:55;;;;;;;45.45;14.38;;;;;;;12.65;52.12;100400.44;4996439;28;20042;-76
2021/12/26 07:27:22;;;;;;;28.90;12.75;;;;;;;12.60;51.64;100401.88;4998123;28;20485;-76
2021/12/26 07:29:48;;;;;;;23.98;11.10;;;;;;;12.44;52.25;100397.06;4991357;28;20030;-76
2021/12/26 07:32:13;;;;;;;33.90;12.55;;;;;;;12.57;52.52;100397.59;4996938;28;20038;-76
2021/12/26 07:34:40;;;;;;;26.10;12.85;;;;;;;12.68;52.02;100400.16;4995370;28;20037;-74
2021/12/26 07:37:07;;;;;;;29.17;13.00;;;;;;;12.57;51.87;100397.59;4995632;28;20084;-77
2021/12/26 07:39:32;;;;;;;27.20;12.73;;;;;;;12.50;52.20;100401.88;4985846;28;20421;-75
2021/12/26 07:41:58;;;;;;;30.10;14.10;;;;;;;12.40;52.71;100404.59;4985519;28;20034;-75
2021/12/26 07:44:23;;;;;;;21.60;13.23;;;;;;;12.32;53.00;100408.97;4995643;28;20057;-74
2021/12/26 07:46:49;;;;;;;23.58;13.07;;;;;;;12.28;53.42;100408.41;4994509;28;20074;-74
2021/12/26 07:49:15;;;;;;;25.92;13.48;;;;;;;12.37;53.69;100417.50;4994894;28;20033;-75
2021/12/26 07:51:41;;;;;;;33.90;14.15;;;;;;;12.42;53.45;100404.44;4991302;28;20022;-74
2021/12/26 07:54:06;;;;;;;32.95;14.55;;;;;;;12.46;53.51;100416.66;4991172;28;20055;-75
2021/12/26 07:56:32;;;;;;;31.35;15.20;;;;;;;12.52;53.39;100416.06;4995144;28;20034;-76
2021/12/26 07:58:58;;;;;;;27.30;14.43;;;;;;;12.57;53.45;100412.97;4994331;28;20080;-76
2021/12/26 08:01:27;;;;;;;51.83;27.52;;;;;;;12.72;53.43;100423.16;4993864;28;20030;-75
2021/12/26 08:03:57;;;;;;;25.58;15.05;;;;;;;12.62;53.02;100411.53;4977554;28;20397;-78
2021/12/26 08:06:22;;;;;;;29.38;12.73;;;;;;;12.84;53.07;100424.69;4994269;28;20393;-75
2021/12/26 08:08:49;;;;;;;60.15;13.60;;;;;;;12.90;53.12;100443.00;4995592;28;20037;-75
2021/12/26 08:11:15;;;;;;;27.83;12.38;;;;;;;12.98;52.71;100450.41;4970515;28;20464;-75
2021/12/26 08:13:42;;;;;;;34.80;13.60;;;;;;;12.96;52.71;100447.00;4994490;28;20104;-75
2021/12/26 08:16:08;;;;;;;31.88;13.77;;;;;;;13.09;52.51;100451.13;4993824;28;20030;-75
2021/12/26 08:18:33;;;;;;;30.83;13.32;;;;;;;13.17;52.65;100457.66;4994026;28;20027;-75
2021/12/26 08:20:59;;;;;;;32.33;17.17;;;;;;;13.26;52.41;100454.06;4994532;28;20026;-74
2021/12/26 08:23:24;;;;;;;30.10;15.13;;;;;;;13.31;52.06;100449.06;4985277;28;20378;-75
2021/12/26 08:25:50;;;;;;;34.22;15.57;;;;;;;13.37;52.03;100459.28;4993960;28;20019;-75
2021/12/26 08:28:15;;;;;;;38.58;15.13;;;;;;;13.19;52.51;100452.94;4994222;28;20026;-74
2021/12/26 08:30:43;;;;;;;27.02;14.25;;;;;;;13.27;52.35;100450.38;4993670;28;20524;-75
2021/12/26 08:33:08;;;;;;;38.22;14.38;;;;;;;13.31;52.26;100441.84;4994320;28;20080;-77
2021/12/26 08:35:35;;;;;;;24.02;12.73;;;;;;;13.43;52.11;100450.59;4993984;28;20451;-74
2021/12/26 08:38:01;;;;;;;33.03;12.93;;;;;;;13.51;52.13;100448.88;4993870;28;20026;-77
2021/12/26 08:40:27;;;;;;;148.85;62.67;;;;;;;13.48;52.49;100437.53;4992844;28;20058;-76
2021/12/26 08:42:52;;;;;;;67.32;30.30;;;;;;;13.51;52.26;100437.22;4994474;28;20057;-75
2021/12/26 08:45:18;;;;;;;44.83;18.08;;;;;;;13.42;52.28;100428.13;4995924;28;20034;-75
2021/12/26 08:47:44;;;;;;;47.55;22.58;;;;;;;13.48;52.26;100432.97;4990506;28;20504;-77
2021/12/26 08:50:11;;;;;;;35.25;19.15;;;;;;;13.54;52.42;100420.72;4976342;28;20112;-75
2021/12/26 08:52:37;;;;;;;41.13;20.92;;;;;;;13.60;52.08;100423.69;4993290;28;20023;-75
2021/12/26 08:55:04;;;;;;;27.98;14.52;;;;;;;13.58;52.18;100427.50;4993655;28;20089;-75
2021/12/26 08:57:30;;;;;;;24.08;14.27;;;;;;;13.54;52.02;100437.78;4993305;28;20531;-75
2021/12/26 08:59:56;;;;;;;28.40;14.80;;;;;;;13.52;52.41;100428.09;4978964;28;20418;-75
2021/12/26 09:02:22;;;;;;;37.80;15.02;;;;;;;13.57;52.35;100432.09;4993223;28;20026;-75
2021/12/26 09:04:47;;;;;;;27.98;15.40;;;;;;;13.60;52.40;100428.22;4975904;28;20093;-76
2021/12/26 09:07:13;;;;;;;23.52;13.05;;;;;;;13.68;52.06;100432.88;4993942;28;20031;-77
2021/12/26 09:09:39;;;;;;;33.03;15.57;;;;;;;13.68;52.48;100433.72;4990730;28;20034;-77
2021/12/26 09:12:06;;;;;;;36.25;15.82;;;;;;;13.72;52.39;100432.44;4994823;28;20417;-75
2021/12/26 09:14:32;;;;;;;30.65;14.20;;;;;;;13.64;52.28;100426.91;4993258;28;20449;-78
2021/12/26 09:16:58;;;;;;;31.80;12.73;;;;;;;13.61;51.98;100427.22;4993515;28;20022;-75
2021/12/26 09:19:28;;;;;;;34.17;13.48;;;;;;;13.39;51.82;100400.59;4997336;28;20029;-77
2021/12/26 09:22:04;;;;;;;35.47;14.00;;;;;;;13.57;52.08;100425.81;4995657;28;20110;-77
2021/12/26 09:24:29;;;;;;;26.23;14.02;;;;;;;13.38;52.54;100412.38;4994810;28;20037;-76
2021/12/26 09:26:55;;;;;;;33.75;12.65;;;;;;;13.37;52.24;100418.78;4994298;28;20026;-79
2021/12/26 09:29:22;;;;;;;24.45;12.80;;;;;;;13.41;52.11;100421.06;4979666;28;20038;-78
2021/12/26 09:31:50;;;;;;;29.60;12.85;;;;;;;13.27;52.43;100404.47;4979884;28;20029;-78
2021/12/26 09:34:16;;;;;;;41.88;12.48;;;;;;;13.42;52.06;100416.50;4996526;28;20080;-75
2021/12/26 09:36:42;;;;;;;38.00;13.30;;;;;;;13.32;52.45;100412.97;4995015;28;20050;-75
2021/12/26 09:39:09;;;;;;;36.97;14.10;;;;;;;13.34;52.76;100416.38;4996311;28;20034;-76
2021/12/26 09:41:36;;;;;;;31.95;13.07;;;;;;;13.31;52.34;100422.06;4993092;28;20417;-76
2021/12/26 09:44:01;;;;;;;32.38;15.40;;;;;;;13.21;52.95;100422.09;4996534;28;20037;-75
2021/12/26 09:46:31;;;;;;;24.50;13.38;;;;;;;13.27;52.98;100429.59;4996057;28;20050;-78
2021/12/26 09:48:57;;;;;;;34.55;13.55;;;;;;;13.28;53.45;100423.22;4978970;28;20039;-76
2021/12/26 09:51:26;;;;;;;24.77;14.55;;;;;;;13.12;53.68;100420.28;4990233;28;20037;-75
2021/12/26 09:53:52;;;;;;;30.25;14.52;;;;;;;13.07;54.31;100427.94;4992980;28;20040;-76
2021/12/26 09:56:19;;;;;;;30.90;15.40;;;;;;;13.11;54.93;100433.94;4993533;28;20026;-76
2021/12/26 09:59:03;;;;;;;37.60;15.07;;;;;;;13.11;54.42;100421.28;4975711;28;20034;-75
2021/12/26 10:01:34;;;;;;;31.23;14.48;;;;;;;13.02;55.19;100417.59;4960329;28;20041;-74
2021/12/26 10:04:21;;;;;;;28.85;13.88;;;;;;;13.17;55.23;100411.75;4976565;28;20491;-76
2021/12/26 10:06:49;;;;;;;25.83;14.18;;;;;;;13.27;54.84;100401.78;4973408;28;20483;-76
2021/12/26 10:09:17;;;;;;;33.95;13.98;;;;;;;13.27;54.02;100408.00;4974154;28;20027;-76
2021/12/26 10:11:47;;;;;;;25.20;13.80;;;;;;;13.20;54.08;100406.06;4974069;28;20166;-76
2021/12/26 10:14:15;;;;;;;38.70;14.45;;;;;;;13.18;54.10;100403.47;4977706;28;20046;-76
2021/12/26 10:16:46;;;;;;;25.60;13.02;;;;;;;13.27;53.53;100401.78;4993410;28;20033;-76
2021/12/26 10:19:13;;;;;;;34.38;12.38;;;;;;;13.12;53.56;100397.84;4993040;28;20049;-76
2021/12/26 10:21:44;;;;;;;16.80;11.50;;;;;;;13.13;53.53;100404.94;4993181;28;20105;-76
2021/12/26 10:24:31;;;;;;;21.30;11.95;;;;;;;12.99;53.18;100404.38;4991957;28;20026;-77
2021/12/26 10:27:04;;;;;;;21.70;10.27;;;;;;;13.00;53.28;100411.47;4990772;28;20113;-76
2021/12/26 10:29:33;;;;;;;20.25;10.80;;;;;;;12.94;53.70;100417.44;4975214;28;20023;-76
2021/12/26 10:32:05;;;;;;;20.45;10.68;;;;;;;13.06;54.01;100413.56;4987057;28;20033;-76
2021/12/26 10:34:32;;;;;;;21.73;10.55;;;;;;;13.02;54.11;100396.00;4996966;28;20026;-76
2021/12/26 10:36:59;;;;;;;17.95;10.10;;;;;;;12.80;54.35;100398.16;4997491;28;20070;-76
2021/12/26 10:39:33;;;;;;;16.48;10.00;;;;;;;12.82;54.86;100405.09;4997490;28;20373;-75
2021/12/26 10:42:02;;;;;;;19.38;9.77;;;;;;;12.90;54.56;100399.81;4997164;28;20137;-74
2021/12/26 10:44:38;;;;;;;19.27;10.98;;;;;;;12.93;54.53;100404.09;4996661;28;20034;-74
2021/12/26 10:47:10;;;;;;;39.03;12.63;;;;;;;13.08;54.93;100397.28;4996671;28;20124;-74
2021/12/26 10:49:43;;;;;;;29.15;13.95;;;;;;;13.22;54.63;100396.81;4996866;28;20026;-74
2021/12/26 10:52:10;;;;;;;;;;;;;;;13.42;53.75;100394.88;4996984;28;20030;-75
2021/12/26 10:54:35;;;;;;;26.40;12.50;;;;;;;13.50;53.66;100392.28;4996767;28;20380;-77
2021/12/26 10:57:37;;;;;;;66.93;15.77;;;;;;;13.73;53.31;100393.56;4997009;28;20033;-75
2021/12/26 11:00:21;;;;;;;21.33;11.23;;;;;;;13.78;52.38;100393.13;4996737;28;20027;-75
2021/12/26 11:03:17;;;;;;;25.98;10.77;;;;;;;13.60;52.09;100393.09;4996340;28;20061;-76
2021/12/26 11:05:45;;;;;;;32.13;12.05;;;;;;;13.59;52.42;100391.38;4975750;28;20062;-76
2021/12/26 11:08:17;;;;;;;29.17;13.63;;;;;;;13.63;53.29;100392.81;4976845;28;20054;-75
2021/12/26 11:10:48;;;;;;;30.20;12.70;;;;;;;13.76;53.39;100382.47;4977184;28;20023;-76
2021/12/26 11:13:28;;;;;;;20.67;12.13;;;;;;;13.65;53.71;100374.56;4989072;28;20445;-76
2021/12/26 11:16:00;;;;;;;32.53;10.57;;;;;;;13.60;53.57;100379.59;4995822;28;20046;-76
2021/12/26 11:18:26;;;;;;;21.23;10.27;;;;;;;13.41;53.77;100376.97;4996243;28;20489;-76